Time;durP1;ratioP1;P1;durP2;ratioP2;P2;SDS_P1;SDS_P2;PMS_P1;PMS_P2;Temp;Humidity;BMP_temperature;BMP_pressure;BME280_temperature;BME280_humidity;BME280_pressure;Samples;Min_cycle;Max_cycle;Signal;HPM_P1;HPM_P2
2023/01/26 00:02:26;;;;;;;17.07;10.60;;;0.60;98.90;;;;;;5026007;28;21461;-89
2023/01/26 00:04:53;;;;;;;19.23;10.83;;;0.70;99.00;;;;;;5028886;28;20215;-88
2023/01/26 00:07:19;;;;;;;19.90;11.50;;;0.70;98.70;;;;;;5027776;28;20658;-88
2023/01/26 00:09:46;;;;;;;21.37;11.80;;;0.70;98.70;;;;;;5028669;28;20210;-89
2023/01/26 00:12:14;;;;;;;19.00;11.10;;;0.60;98.70;;;;;;5011787;28;20226;-86
2023/01/26 00:14:49;;;;;;;17.27;10.83;;;0.60;98.90;;;;;;5022363;28;20702;-85
2023/01/26 00:17:24;;;;;;;19.57;10.80;;;0.60;99.00;;;;;;5028714;28;20571;-87
2023/01/26 00:19:55;;;;;;;19.87;11.03;;;0.50;98.40;;;;;;5014977;28;20204;-87
2023/01/26 00:22:22;;;;;;;18.03;10.80;;;0.30;98.80;;;;;;5031449;28;20650;-88
2023/01/26 00:24:49;;;;;;;18.87;10.60;;;0.30;99.30;;;;;;5023539;28;20206;-88
2023/01/26 00:27:15;;;;;;;16.73;10.20;;;0.40;99.30;;;;;;5025994;28;20199;-87
2023/01/26 00:29:43;;;;;;;19.83;10.63;;;0.30;99.20;;;;;;5023652;28;20242;-88
2023/01/26 00:32:10;;;;;;;19.17;10.67;;;0.20;99.20;;;;;;5022389;28;20207;-87
2023/01/26 00:34:37;;;;;;;19.00;10.90;;;0.50;99.30;;;;;;5029032;28;20340;-87
2023/01/26 00:37:08;;;;;;;19.60;11.23;;;0.40;99.00;;;;;;5028705;28;20203;-87
2023/01/26 00:39:34;;;;;;;18.33;11.30;;;0.50;99.30;;;;;;5023669;28;20203;-87
2023/01/26 00:44:42;;;;;;;19.43;11.20;;;0.60;99.00;;;;;;5023513;28;20209;-87
2023/01/26 00:47:11;;;;;;;18.23;11.13;;;0.70;99.00;;;;;;5027277;28;22276;-87
2023/01/26 00:49:39;;;;;;;17.53;10.57;;;0.80;98.70;;;;;;5027820;28;20195;-87
2023/01/26 00:52:07;;;;;;;18.47;10.97;;;0.80;98.30;;;;;;5028605;28;20199;-87
2023/01/26 00:54:34;;;;;;;20.97;11.07;;;0.70;98.20;;;;;;5029778;28;20226;-87
2023/01/26 00:57:01;;;;;;;19.87;11.37;;;0.60;98.80;;;;;;5028285;28;20989;-87
2023/01/26 00:59:31;;;;;;;19.07;11.40;;;0.60;99.30;;;;;;5028342;28;20572;-87
2023/01/26 01:02:00;;;;;;;18.37;11.10;;;0.70;99.10;;;;;;5035516;28;20194;-87
2023/01/26 01:04:28;;;;;;;16.03;10.23;;;0.70;98.70;;;;;;5007536;28;20269;-87
2023/01/26 01:06:55;;;;;;;17.10;10.53;;;0.70;98.70;;;;;;5029434;28;20234;-87
2023/01/26 01:09:24;;;;;;;16.73;10.03;;;0.70;98.80;;;;;;5029167;28;20205;-87
2023/01/26 01:11:51;;;;;;;18.60;10.37;;;0.90;98.00;;;;;;5001875;28;20210;-87
2023/01/26 01:14:18;;;;;;;18.30;10.47;;;0.90;97.90;;;;;;5019478;28;20210;-87
2023/01/26 01:16:46;;;;;;;18.47;10.73;;;0.90;97.70;;;;;;5026595;28;20195;-87
2023/01/26 01:19:14;;;;;;;19.07;10.53;;;0.90;97.60;;;;;;5025507;28;20714;-87
2023/01/26 01:21:41;;;;;;;19.37;11.27;;;0.80;97.70;;;;;;5025910;28;20203;-87
2023/01/26 01:24:08;;;;;;;21.00;12.07;;;0.70;98.00;;;;;;5027943;28;20225;-87
2023/01/26 01:26:37;;;;;;;21.23;11.80;;;0.60;98.30;;;;;;5030581;28;20199;-87
2023/01/26 01:29:04;;;;;;;18.43;10.67;;;0.60;98.70;;;;;;5029488;28;20202;-87
2023/01/26 01:31:30;;;;;;;18.67;11.13;;;0.70;98.60;;;;;;5025241;28;20208;-87
2023/01/26 01:33:58;;;;;;;19.13;11.10;;;0.70;98.40;;;;;;5023384;28;20563;-87
2023/01/26 01:36:25;;;;;;;22.63;11.53;;;0.70;98.50;;;;;;5026469;28;20250;-87
2023/01/26 01:38:52;;;;;;;19.47;11.03;;;0.60;98.50;;;;;;5026126;28;20203;-87
2023/01/26 01:41:21;;;;;;;20.03;11.50;;;0.50;98.40;;;;;;5022191;28;20198;-87
2023/01/26 01:43:50;;;;;;;19.80;11.10;;;0.50;98.90;;;;;;5030351;28;20202;-87
2023/01/26 01:46:27;;;;;;;19.53;11.43;;;0.70;98.30;;;;;;5031559;28;20658;-88
2023/01/26 01:48:58;;;;;;;20.97;11.47;;;0.80;98.10;;;;;;5023108;28;20230;-87
2023/01/26 01:51:33;;;;;;;20.57;11.47;;;0.60;97.90;;;;;;5021723;28;20214;-87
2023/01/26 01:54:05;;;;;;;19.53;11.53;;;0.60;98.30;;;;;;5007718;28;20202;-87
2023/01/26 01:56:34;;;;;;;16.60;10.27;;;0.70;98.10;;;;;;5018403;28;20219;-87
2023/01/26 01:59:04;;;;;;;18.33;11.33;;;0.60;98.10;;;;;;5023712;28;20202;-87
2023/01/26 02:01:31;;;;;;;19.33;11.13;;;0.60;98.10;;;;;;5029523;28;20589;-87
2023/01/26 02:04:00;;;;;;;18.90;11.73;;;0.70;98.20;;;;;;5023958;28;20207;-87
2023/01/26 02:06:33;;;;;;;19.20;11.37;;;0.80;97.90;;;;;;5013669;28;20726;-87
2023/01/26 02:09:00;;;;;;;22.43;11.63;;;0.80;97.70;;;;;;5024341;28;20207;-87
2023/01/26 02:11:32;;;;;;;18.13;11.00;;;0.70;97.80;;;;;;4995092;28;20811;-88
2023/01/26 02:14:04;;;;;;;20.00;11.87;;;0.70;97.90;;;;;;5027168;28;20207;-87
2023/01/26 02:16:31;;;;;;;21.10;11.77;;;0.70;98.00;;;;;;5022722;28;20226;-87
2023/01/26 02:18:58;;;;;;;22.50;11.87;;;0.60;98.00;;;;;;5027127;28;20647;-87
2023/01/26 02:21:26;;;;;;;18.03;10.67;;;0.60;98.10;;;;;;5029679;28;20194;-87
2023/01/26 02:24:19;;;;;;;22.03;12.03;;;0.50;98.10;;;;;;5027063;28;20269;-87
2023/01/26 02:26:48;;;;;;;18.97;11.50;;;0.40;98.40;;;;;;5022978;28;20214;-88
2023/01/26 02:29:15;;;;;;;19.40;12.07;;;0.30;98.70;;;;;;5012045;28;20198;-87
2023/01/26 02:31:42;;;;;;;23.67;12.07;;;0.30;99.00;;;;;;5029443;28;20210;-87
2023/01/26 02:34:10;;;;;;;20.97;11.60;;;0.20;99.20;;;;;;5030121;28;20288;-87
2023/01/26 02:36:37;;;;;;;18.77;10.90;;;0.40;99.10;;;;;;5028233;28;20497;-87
2023/01/26 02:39:23;;;;;;;18.43;10.67;;;0.20;98.90;;;;;;5024424;28;20689;-87
2023/01/26 02:44:44;;;;;;;19.10;10.97;;;0.20;99.20;;;;;;5010323;28;20229;-87
2023/01/26 02:47:12;;;;;;;18.23;11.03;;;0.20;99.20;;;;;;5015953;28;20206;-87
2023/01/26 02:49:46;;;;;;;18.70;11.13;;;0.40;99.10;;;;;;5016408;28;20208;-87
2023/01/26 02:52:14;;;;;;;18.17;11.07;;;0.50;98.60;;;;;;5027740;28;20289;-87
2023/01/26 02:57:27;;;;;;;20.30;10.97;;;0.60;98.00;;;;;;5025099;28;20217;-87
2023/01/26 02:59:53;;;;;;;20.93;11.53;;;0.60;97.90;;;;;;5034564;28;20208;-87
2023/01/26 03:02:21;;;;;;;20.20;11.80;;;0.50;98.40;;;;;;5025068;28;20205;-88
2023/01/26 03:04:48;;;;;;;18.33;11.43;;;0.50;98.20;;;;;;5038465;28;20206;-87
2023/01/26 03:07:15;;;;;;;20.70;11.60;;;0.50;98.30;;;;;;5021797;28;20207;-87
2023/01/26 03:09:42;;;;;;;20.17;11.10;;;0.50;98.50;;;;;;5019479;28;20198;-86
2023/01/26 03:12:09;;;;;;;20.00;11.43;;;0.50;98.30;;;;;;5020585;28;20214;-87
2023/01/26 03:14:37;;;;;;;20.80;11.00;;;0.60;98.10;;;;;;5025469;28;20217;-87
2023/01/26 03:17:04;;;;;;;18.27;11.07;;;0.70;97.60;;;;;;5023241;28;20235;-87
2023/01/26 03:27:46;;;;;;;17.57;10.47;;;0.50;97.80;;;;;;5023810;28;20201;-85
2023/01/26 03:30:18;;;;;;;20.03;11.27;;;0.50;97.40;;;;;;5027565;28;20190;-87
2023/01/26 03:32:45;;;;;;;21.77;11.37;;;0.40;97.80;;;;;;5024488;28;20588;-86
2023/01/26 03:35:14;;;;;;;21.27;11.63;;;0.40;98.10;;;;;;5019081;28;20203;-87
2023/01/26 03:37:42;;;;;;;19.70;11.23;;;0.30;98.20;;;;;;5026369;28;20681;-87
2023/01/26 03:56:39;;;;;;;17.63;11.10;;;0.60;97.60;;;;;;5020199;28;20718;-86
2023/01/26 03:59:13;;;;;;;20.10;11.10;;;0.50;97.90;;;;;;5023004;28;20202;-88
2023/01/26 04:09:56;;;;;;;19.07;10.90;;;0.20;98.40;;;;;;5019420;28;20278;-87
2023/01/26 04:12:23;;;;;;;18.07;10.40;;;0.20;98.60;;;;;;5021934;28;20199;-87
2023/01/26 04:23:04;;;;;;;19.60;10.90;;;0.20;98.60;;;;;;5025954;28;20218;-88
2023/01/26 04:25:31;;;;;;;17.70;10.00;;;0.20;99.00;;;;;;5026177;28;20210;-88
2023/01/26 04:27:58;;;;;;;17.40;9.77;;;0.30;98.60;;;;;;5029406;28;20203;-87
2023/01/26 04:30:25;;;;;;;15.53;9.93;;;0.60;97.80;;;;;;5024007;28;20210;-87
2023/01/26 04:32:54;;;;;;;15.93;9.83;;;0.60;97.70;;;;;;5026524;28;20200;-88
2023/01/26 04:35:21;;;;;;;15.67;10.03;;;0.60;97.70;;;;;;5026725;28;20203;-88
2023/01/26 04:37:48;;;;;;;15.63;9.27;;;0.70;97.50;;;;;;5028455;28;20194;-88
2023/01/26 04:40:16;;;;;;;15.90;9.77;;;0.80;97.20;;;;;;5025494;28;20199;-88
2023/01/26 04:42:43;;;;;;;15.10;9.37;;;0.90;96.80;;;;;;5025061;28;20209;-88
2023/01/26 04:45:11;;;;;;;15.33;9.57;;;0.90;96.60;;;;;;5026202;28;20198;-87
2023/01/26 04:47:37;;;;;;;15.63;9.50;;;0.90;96.60;;;;;;5030219;28;20235;-87
2023/01/26 04:50:07;;;;;;;16.10;9.70;;;0.90;96.80;;;;;;5029599;28;20207;-88
2023/01/26 04:52:34;;;;;;;14.97;9.13;;;0.90;96.80;;;;;;5031234;28;20203;-88
2023/01/26 04:55:01;;;;;;;17.13;9.60;;;1.00;96.50;;;;;;5024561;28;20219;-88
2023/01/26 04:57:28;;;;;;;14.37;9.47;;;0.90;96.50;;;;;;5037559;28;20329;-87
2023/01/26 04:59:55;;;;;;;15.20;9.60;;;0.80;96.80;;;;;;5030722;28;20215;-87
2023/01/26 05:02:23;;;;;;;17.17;9.70;;;0.70;96.70;;;;;;5038081;28;20850;-87
2023/01/26 05:04:50;;;;;;;15.50;8.53;;;0.70;96.80;;;;;;5029036;28;20199;-87
2023/01/26 05:07:18;;;;;;;13.93;9.30;;;0.70;96.80;;;;;;5029031;28;20670;-88
2023/01/26 05:09:45;;;;;;;15.07;9.47;;;0.80;96.50;;;;;;5031571;28;20203;-90
2023/01/26 05:14:56;;;;;;;17.17;9.47;;;0.60;96.70;;;;;;5027714;28;20198;-85
2023/01/26 05:17:23;;;;;;;13.83;8.67;;;0.60;96.80;;;;;;5029061;28;20218;-85
2023/01/26 05:19:50;;;;;;;16.00;8.93;;;0.60;96.70;;;;;;5013817;28;20256;-85
2023/01/26 05:22:18;;;;;;;14.67;9.20;;;0.60;96.80;;;;;;5025795;28;20850;-85
2023/01/26 05:24:45;;;;;;;15.60;10.00;;;0.60;96.80;;;;;;5026124;28;20203;-85
2023/01/26 05:27:20;;;;;;;17.00;9.67;;;0.60;96.80;;;;;;5025738;28;20275;-85
2023/01/26 05:29:47;;;;;;;15.57;9.57;;;0.50;97.30;;;;;;5023535;28;20634;-85
2023/01/26 05:32:14;;;;;;;15.80;9.53;;;0.60;97.20;;;;;;5025807;28;20659;-85
2023/01/26 05:34:42;;;;;;;13.90;8.70;;;0.60;97.40;;;;;;5027443;28;20199;-85
2023/01/26 05:37:09;;;;;;;12.30;6.87;;;0.70;97.00;;;;;;5030864;28;20237;-85
2023/01/26 05:39:37;;;;;;;9.83;6.90;;;0.80;96.80;;;;;;5026593;28;20253;-86
2023/01/26 05:42:04;;;;;;;10.87;7.53;;;0.70;96.50;;;;;;5025158;28;20196;-87
2023/01/26 05:44:31;;;;;;;13.70;8.50;;;0.50;96.70;;;;;;5027671;28;20662;-85
2023/01/26 05:47:00;;;;;;;12.67;8.30;;;0.50;97.20;;;;;;5029696;28;20210;-88
2023/01/26 05:49:27;;;;;;;12.43;7.73;;;0.50;97.70;;;;;;5019858;28;20238;-87
2023/01/26 05:51:54;;;;;;;13.13;8.10;;;0.50;97.80;;;;;;5025005;28;20222;-87
2023/01/26 05:54:21;;;;;;;13.87;8.50;;;0.60;97.20;;;;;;5034662;28;20191;-85
2023/01/26 05:56:49;;;;;;;18.73;10.10;;;0.60;97.00;;;;;;5024732;28;20237;-85
2023/01/26 05:59:16;;;;;;;14.53;8.70;;;0.50;97.20;;;;;;5020064;28;20194;-85
2023/01/26 06:01:43;;;;;;;13.97;9.57;;;0.40;97.40;;;;;;5021221;28;20206;-86
2023/01/26 06:04:10;;;;;;;16.23;9.70;;;0.60;97.20;;;;;;5030016;28;20570;-85
2023/01/26 06:06:36;;;;;;;12.13;7.77;;;0.70;96.80;;;;;;5020365;28;20203;-85
2023/01/26 06:09:04;;;;;;;10.67;7.07;;;0.90;96.80;;;;;;5025022;28;20581;-89
2023/01/26 06:11:32;;;;;;;11.33;7.27;;;0.90;96.80;;;;;;5015826;28;20199;-87
2023/01/26 06:14:00;;;;;;;12.47;7.97;;;0.80;96.80;;;;;;5016414;28;20199;-88
2023/01/26 06:16:27;;;;;;;14.37;9.10;;;0.80;96.80;;;;;;5022625;28;20228;-89
2023/01/26 06:18:54;;;;;;;14.90;9.77;;;0.80;96.80;;;;;;5023882;28;20209;-87
2023/01/26 06:21:21;;;;;;;15.23;9.70;;;0.80;96.80;;;;;;5006360;28;20215;-90
2023/01/26 06:23:48;;;;;;;18.90;11.00;;;0.80;96.70;;;;;;5022510;28;20259;-86
2023/01/26 06:26:15;;;;;;;20.43;11.43;;;0.70;96.80;;;;;;5029497;28;20203;-87
2023/01/26 06:28:42;;;;;;;17.67;9.57;;;0.70;96.50;;;;;;5022934;28;20206;-87
2023/01/26 06:31:10;;;;;;;17.33;10.43;;;0.70;96.80;;;;;;5021142;28;20207;-86
2023/01/26 06:33:38;;;;;;;18.07;9.87;;;0.60;96.70;;;;;;5028762;28;20206;-90
2023/01/26 06:36:08;;;;;;;18.50;10.40;;;0.50;96.80;;;;;;5026531;28;20226;-87
2023/01/26 06:38:35;;;;;;;17.80;10.73;;;0.60;96.80;;;;;;5022854;28;20210;-89
2023/01/26 06:41:04;;;;;;;18.57;11.27;;;0.50;96.90;;;;;;5026187;28;20203;-90
2023/01/26 06:43:32;;;;;;;19.50;11.50;;;0.50;97.30;;;;;;5039533;28;20262;-88
2023/01/26 06:45:59;;;;;;;17.57;10.37;;;0.50;97.60;;;;;;5045933;28;20250;-91
2023/01/26 06:48:29;;;;;;;16.33;10.73;;;0.60;97.10;;;;;;5025951;28;20646;-90
2023/01/26 06:51:03;;;;;;;18.17;10.53;;;0.70;96.80;;;;;;5031707;28;20209;-90
2023/01/26 06:53:34;;;;;;;18.60;10.93;;;0.70;96.60;;;;;;5026346;28;20210;-89
2023/01/26 06:56:01;;;;;;;20.33;11.70;;;0.60;96.80;;;;;;5028571;28;20201;-87
2023/01/26 06:58:28;;;;;;;19.67;10.90;;;0.40;97.10;;;;;;5019515;28;20202;-91
2023/01/26 07:00:56;;;;;;;17.90;11.37;;;0.40;97.20;;;;;;5024203;28;20215;-89
2023/01/26 07:03:23;;;;;;;18.67;10.57;;;0.40;97.60;;;;;;5019204;28;20217;-89
2023/01/26 07:05:53;;;;;;;20.23;11.23;;;0.40;97.40;;;;;;5027479;28;20210;-88
2023/01/26 07:08:20;;;;;;;15.53;9.23;;;0.60;96.90;;;;;;5026200;28;20194;-90
2023/01/26 07:10:47;;;;;;;18.07;10.63;;;0.70;96.50;;;;;;5009654;28;20198;-90
2023/01/26 07:13:13;;;;;;;17.10;9.93;;;0.70;96.50;;;;;;5027852;28;20206;-90
2023/01/26 07:15:40;;;;;;;19.20;10.33;;;0.80;96.70;;;;;;5026305;28;20209;-90
2023/01/26 07:18:07;;;;;;;16.83;9.40;;;0.80;96.30;;;;;;5019907;28;20226;-87
2023/01/26 07:20:34;;;;;;;12.93;7.77;;;0.90;96.30;;;;;;5022568;28;20207;-91
2023/01/26 07:23:03;;;;;;;8.70;5.67;;;0.80;96.20;;;;;;5025436;28;20222;-89
2023/01/26 07:25:30;;;;;;;7.20;5.23;;;0.70;95.70;;;;;;5021957;28;20207;-91
2023/01/26 07:27:57;;;;;;;9.60;5.60;;;0.50;96.30;;;;;;5029564;28;20198;-90
2023/01/26 07:30:24;;;;;;;9.10;5.37;;;0.40;96.90;;;;;;5030938;28;20210;-91
2023/01/26 07:32:51;;;;;;;9.80;6.00;;;0.50;97.30;;;;;;5032142;28;20194;-88
2023/01/26 07:35:18;;;;;;;8.17;5.37;;;0.50;97.20;;;;;;5032696;28;20218;-91
2023/01/26 07:37:45;;;;;;;12.33;5.80;;;0.60;96.70;;;;;;5026930;28;20227;-88
2023/01/26 07:40:14;;;;;;;8.03;5.37;;;0.50;96.80;;;;;;5030383;28;20206;-91
2023/01/26 07:42:41;;;;;;;7.53;5.17;;;0.40;97.30;;;;;;5030827;28;20199;-90
2023/01/26 07:45:08;;;;;;;6.33;4.90;;;0.40;97.20;;;;;;5025370;28;20194;-90
2023/01/26 07:47:36;;;;;;;8.00;5.40;;;0.30;97.30;;;;;;5032652;28;20226;-89
2023/01/26 07:50:04;;;;;;;7.27;5.33;;;0.30;97.20;;;;;;5032244;28;20265;-91
2023/01/26 07:52:31;;;;;;;7.87;5.23;;;0.30;97.40;;;;;;5039888;28;20210;-91
2023/01/26 07:54:58;;;;;;;8.50;5.30;;;0.20;97.40;;;;;;5009988;28;20214;-91
2023/01/26 07:57:26;;;;;;;8.43;5.60;;;0.30;97.30;;;;;;5033365;28;20234;-91
2023/01/26 07:59:54;;;;;;;7.63;5.27;;;0.30;97.10;;;;;;5020294;28;20280;-90
2023/01/26 08:02:21;;;;;;;8.43;5.20;;;0.50;96.70;;;;;;5032548;28;20233;-90
2023/01/26 08:04:49;;;;;;;7.27;5.17;;;0.60;96.30;;;;;;5034862;28;20230;-91
2023/01/26 08:07:16;;;;;;;8.23;5.47;;;0.60;96.20;;;;;;5035856;28;20256;-90
2023/01/26 08:09:42;;;;;;;8.63;4.93;;;0.70;95.80;;;;;;5034292;28;20199;-90
2023/01/26 08:12:09;;;;;;;7.47;5.47;;;0.70;95.70;;;;;;5034761;28;20226;-90
2023/01/26 08:14:37;;;;;;;8.43;5.57;;;0.80;95.30;;;;;;5034135;28;20214;-91
2023/01/26 08:17:04;;;;;;;8.10;5.33;;;0.80;95.20;;;;;;5034458;28;20221;-91
2023/01/26 08:19:31;;;;;;;7.77;5.27;;;0.90;95.00;;;;;;5030472;28;20215;-90
2023/01/26 08:21:58;;;;;;;8.93;6.10;;;0.90;95.10;;;;;;5026906;28;20214;-90
2023/01/26 08:24:26;;;;;;;8.13;5.30;;;1.00;95.00;;;;;;5036225;28;20214;-90
2023/01/26 08:26:53;;;;;;;8.37;5.90;;;0.90;94.50;;;;;;5035570;28;20198;-91
2023/01/26 08:29:21;;;;;;;9.27;5.40;;;0.90;94.80;;;;;;5017489;28;20205;-90
2023/01/26 08:31:49;;;;;;;8.07;5.60;;;0.90;95.00;;;;;;5020744;28;20214;-91
2023/01/26 08:34:16;;;;;;;7.97;5.57;;;0.70;95.50;;;;;;5028017;28;20210;-88
2023/01/26 08:36:43;;;;;;;8.97;6.40;;;0.60;95.70;;;;;;5043444;28;20227;-89
2023/01/26 08:39:10;;;;;;;7.97;5.80;;;0.50;95.90;;;;;;5041115;28;20203;-90
2023/01/26 08:41:38;;;;;;;12.83;7.07;;;0.50;96.50;;;;;;5025143;28;20206;-89
2023/01/26 08:44:06;;;;;;;9.37;6.60;;;0.60;96.20;;;;;;5035705;28;20203;-90
2023/01/26 08:46:32;;;;;;;11.87;7.30;;;0.80;95.60;;;;;;5022918;28;20199;-92
2023/01/26 08:49:01;;;;;;;10.13;6.67;;;0.80;95.20;;;;;;5039176;28;20241;-90
2023/01/26 08:51:28;;;;;;;9.33;6.53;;;0.80;94.80;;;;;;5028622;28;20217;-88
2023/01/26 08:53:55;;;;;;;10.07;6.57;;;0.90;95.00;;;;;;5032998;28;20213;-89
2023/01/26 08:56:22;;;;;;;11.37;6.57;;;0.90;94.70;;;;;;5031727;28;20203;-89
2023/01/26 08:58:49;;;;;;;12.30;7.23;;;1.00;94.20;;;;;;5021086;28;20226;-91
2023/01/26 09:01:18;;;;;;;12.67;7.67;;;0.90;94.40;;;;;;5023798;28;20258;-91
2023/01/26 09:03:45;;;;;;;11.77;7.33;;;0.80;95.00;;;;;;5032345;28;20283;-91
2023/01/26 09:06:14;;;;;;;11.90;7.00;;;0.70;95.00;;;;;;5029742;28;20199;-90
2023/01/26 09:08:41;;;;;;;10.87;7.70;;;0.60;95.20;;;;;;5021597;28;20694;-91
2023/01/26 09:11:09;;;;;;;11.40;7.47;;;0.60;95.50;;;;;;5026202;28;20212;-90
2023/01/26 09:13:37;;;;;;;10.73;7.00;;;0.50;95.80;;;;;;5028464;28;20210;-90
2023/01/26 09:16:05;;;;;;;14.53;7.67;;;0.80;95.40;;;;;;5030714;28;20710;-91
2023/01/26 09:18:33;;;;;;;10.90;6.90;;;0.80;95.20;;;;;;5009145;28;20227;-91
2023/01/26 09:21:03;;;;;;;11.43;7.07;;;1.00;94.70;;;;;;5037412;28;20206;-90
2023/01/26 09:23:33;;;;;;;12.13;7.67;;;0.90;94.50;;;;;;5031565;28;20219;-88
2023/01/26 09:26:00;;;;;;;10.90;7.23;;;0.60;94.70;;;;;;5035165;28;20206;-91
2023/01/26 09:28:28;;;;;;;10.50;7.17;;;0.60;95.60;;;;;;5034441;28;20710;-89
2023/01/26 09:30:55;;;;;;;11.47;7.87;;;0.50;95.70;;;;;;5030533;28;20199;-90
2023/01/26 09:33:22;;;;;;;13.53;8.67;;;0.40;95.70;;;;;;5025959;28;20222;-90
2023/01/26 09:35:49;;;;;;;12.30;7.87;;;0.50;96.30;;;;;;5032759;28;20668;-90
2023/01/26 09:38:16;;;;;;;11.27;7.73;;;1.20;95.90;;;;;;5031387;28;20221;-91
2023/01/26 09:40:56;;;;;;;12.47;8.57;;;1.10;94.50;;;;;;5036975;28;20210;-90
2023/01/26 09:43:32;;;;;;;16.33;8.83;;;1.00;94.50;;;;;;5038986;28;20194;-91
2023/01/26 09:46:08;;;;;;;15.80;9.03;;;1.00;94.40;;;;;;5032140;28;20647;-91
2023/01/26 09:48:44;;;;;;;14.07;8.33;;;1.00;94.50;;;;;;5035324;28;20229;-91
2023/01/26 09:51:18;;;;;;;13.10;9.00;;;1.00;94.20;;;;;;5032921;28;20546;-90
2023/01/26 09:53:52;;;;;;;14.57;8.70;;;1.00;94.20;;;;;;5033631;28;20197;-91
2023/01/26 09:56:27;;;;;;;17.83;11.53;;;1.00;94.20;;;;;;5030811;28;20202;-91
2023/01/26 09:58:57;;;;;;;93.10;53.60;;;1.50;94.30;;;;;;5033471;28;20304;-91
2023/01/26 10:01:29;;;;;;;25.67;15.47;;;1.80;94.40;;;;;;5037661;28;20191;-91
2023/01/26 10:04:04;;;;;;;16.90;9.73;;;1.90;93.00;;;;;;5035486;28;20212;-90
2023/01/26 10:06:33;;;;;;;18.43;10.83;;;1.70;92.70;;;;;;5028290;28;20306;-90
2023/01/26 10:09:05;;;;;;;14.80;9.50;;;1.40;93.80;;;;;;5029883;28;20202;-91
2023/01/26 10:11:39;;;;;;;17.33;10.23;;;1.30;94.40;;;;;;5024912;28;20217;-91
2023/01/26 10:14:13;;;;;;;16.37;10.07;;;1.20;94.30;;;;;;5025108;28;20195;-89
2023/01/26 10:16:42;;;;;;;16.80;9.47;;;1.10;94.20;;;;;;5019256;28;20202;-91
2023/01/26 10:19:14;;;;;;;61.20;37.67;;;1.00;94.20;;;;;;5024167;28;20218;-91
2023/01/26 10:21:46;;;;;;;16.83;10.53;;;1.00;95.10;;;;;;5017090;28;20215;-91
2023/01/26 10:24:17;;;;;;;16.37;9.80;;;1.40;94.30;;;;;;5022425;28;20237;-90
2023/01/26 10:26:45;;;;;;;15.70;9.77;;;1.30;94.30;;;;;;5026240;28;20202;-90
2023/01/26 10:29:15;;;;;;;14.37;9.80;;;1.10;94.20;;;;;;5022954;28;20211;-91
2023/01/26 10:31:42;;;;;;;14.37;9.47;;;0.90;94.40;;;;;;5021567;28;20204;-91
2023/01/26 10:34:13;;;;;;;17.23;11.23;;;0.90;94.90;;;;;;5017414;28;20210;-89
2023/01/26 10:36:42;;;;;;;16.93;10.77;;;0.80;95.10;;;;;;5026121;28;20660;-90
2023/01/26 10:39:11;;;;;;;19.23;10.93;;;0.80;95.40;;;;;;5031418;28;20231;-91
2023/01/26 10:41:38;;;;;;;19.53;11.77;;;0.70;95.10;;;;;;5028194;28;20667;-91
2023/01/26 10:44:25;;;;;;;19.20;10.90;;;0.60;95.60;;;;;;5034166;28;20206;-89
2023/01/26 10:47:03;;;;;;;18.60;11.00;;;0.60;95.90;;;;;;5029177;28;20209;-91
2023/01/26 10:49:30;;;;;;;17.20;10.90;;;0.60;96.10;;;;;;5026778;28;20194;-91
2023/01/26 10:52:09;;;;;;;18.23;10.90;;;0.60;96.10;;;;;;5031024;28;20199;-91
2023/01/26 10:54:38;;;;;;;18.70;10.77;;;0.80;95.80;;;;;;5030838;28;20195;-91
2023/01/26 10:57:13;;;;;;;18.03;10.07;;;1.10;95.00;;;;;;5031925;28;20206;-90
2023/01/26 10:59:48;;;;;;;18.30;10.80;;;1.20;94.30;;;;;;5025284;28;20205;-89
2023/01/26 11:02:26;;;;;;;18.57;10.60;;;1.30;94.30;;;;;;5033721;28;20637;-90
2023/01/26 11:05:19;;;;;;;18.53;10.83;;;1.20;94.30;;;;;;5029129;28;20543;-91
2023/01/26 11:07:48;;;;;;;19.83;10.30;;;1.10;94.50;;;;;;5025765;28;20206;-90
2023/01/26 11:10:22;;;;;;;22.53;11.57;;;1.00;94.80;;;;;;5027137;28;20203;-89
2023/01/26 11:12:49;;;;;;;20.53;11.67;;;0.80;95.00;;;;;;5032211;28;20289;-91
2023/01/26 11:15:19;;;;;;;18.50;11.23;;;0.80;95.40;;;;;;5031858;28;20206;-91
2023/01/26 11:17:55;;;;;;;17.30;10.90;;;0.90;95.30;;;;;;5030257;28;20211;-90
2023/01/26 11:20:46;;;;;;;20.07;11.20;;;0.80;95.30;;;;;;5029236;28;20206;-90
2023/01/26 11:23:20;;;;;;;20.47;10.67;;;0.80;95.80;;;;;;5030392;28;20218;-90
2023/01/26 11:26:04;;;;;;;19.13;11.17;;;0.80;95.80;;;;;;5025577;28;20650;-90
2023/01/26 11:28:41;;;;;;;18.40;10.87;;;0.90;95.50;;;;;;5026796;28;20219;-90
2023/01/26 11:31:29;;;;;;;18.93;10.20;;;0.90;95.20;;;;;;5028106;28;20297;-90
2023/01/26 11:34:05;;;;;;;18.77;10.80;;;0.80;95.50;;;;;;5020881;28;20211;-89
2023/01/26 11:36:42;;;;;;;17.47;10.33;;;0.70;95.50;;;;;;5010675;28;20245;-90
2023/01/26 11:39:20;;;;;;;19.07;11.27;;;0.60;95.50;;;;;;5026544;28;20217;-90
2023/01/26 11:42:00;;;;;;;20.30;11.43;;;0.50;95.80;;;;;;5017531;28;20202;-90
2023/01/26 11:44:46;;;;;;;18.87;10.90;;;0.60;95.40;;;;;;5025317;28;20218;-90
2023/01/26 11:47:28;;;;;;;21.00;11.40;;;0.60;95.60;;;;;;5023454;28;20199;-90
2023/01/26 11:50:14;;;;;;;18.93;11.03;;;0.60;95.80;;;;;;5024843;28;20190;-90
2023/01/26 11:52:51;;;;;;;18.03;10.27;;;0.60;95.90;;;;;;5020023;28;20200;-90
2023/01/26 11:55:28;;;;;;;17.03;10.50;;;0.60;95.60;;;;;;5014065;28;20214;-90
2023/01/26 11:58:10;;;;;;;17.83;10.43;;;0.80;95.70;;;;;;5030404;28;20218;-91
2023/01/26 12:00:41;;;;;;;16.13;10.67;;;0.90;95.40;;;;;;5026406;28;20670;-90
2023/01/26 12:03:19;;;;;;;16.93;10.10;;;0.90;95.20;;;;;;5024315;28;20221;-92
2023/01/26 12:05:51;;;;;;;19.53;10.40;;;0.90;94.90;;;;;;5036978;28;20205;-88
2023/01/26 12:08:23;;;;;;;16.60;9.83;;;0.70;95.00;;;;;;5036346;28;20205;-89
2023/01/26 12:11:20;;;;;;;17.70;9.87;;;0.70;95.10;;;;;;5032967;28;20289;-88
2023/01/26 12:13:50;;;;;;;17.40;10.50;;;0.70;95.50;;;;;;5026520;28;20205;-88
2023/01/26 12:16:23;;;;;;;18.43;10.63;;;0.70;95.40;;;;;;5028954;28;20203;-90
2023/01/26 12:18:58;;;;;;;17.87;10.30;;;0.80;95.60;;;;;;5030524;28;20218;-90
2023/01/26 12:21:27;;;;;;;18.33;10.20;;;0.70;95.80;;;;;;5029807;28;20236;-90
2023/01/26 12:24:00;;;;;;;20.23;9.93;;;0.70;95.80;;;;;;5044766;28;20214;-90
2023/01/26 12:26:32;;;;;;;19.87;10.83;;;0.70;95.30;;;;;;5044390;28;20290;-89
2023/01/26 12:29:08;;;;;;;17.10;10.07;;;0.70;95.60;;;;;;5019382;28;20207;-91
2023/01/26 12:31:43;;;;;;;19.60;10.40;;;0.80;95.60;;;;;;5017548;28;20899;-91
2023/01/26 12:34:14;;;;;;;19.40;10.40;;;0.80;95.40;;;;;;5025858;28;20198;-91
2023/01/26 12:36:48;;;;;;;16.10;10.03;;;0.90;95.20;;;;;;5030674;28;20213;-91
2023/01/26 12:39:22;;;;;;;17.47;9.40;;;0.90;95.10;;;;;;5014613;28;20225;-91
2023/01/26 12:42:09;;;;;;;18.47;9.50;;;0.80;94.90;;;;;;5025945;28;20220;-91
2023/01/26 12:44:40;;;;;;;20.13;10.43;;;0.80;94.80;;;;;;5027372;28;20201;-91
2023/01/26 12:47:17;;;;;;;18.37;9.77;;;0.80;95.50;;;;;;5014067;28;20205;-91
2023/01/26 12:49:55;;;;;;;17.37;10.10;;;0.80;94.90;;;;;;5033092;28;20224;-91
2023/01/26 12:52:26;;;;;;;18.47;10.33;;;0.90;95.00;;;;;;5031629;28;20202;-88
2023/01/26 12:54:59;;;;;;;23.60;11.20;;;0.80;95.00;;;;;;5031068;28;20210;-88
2023/01/26 12:57:33;;;;;;;21.13;9.93;;;0.80;94.90;;;;;;5035204;28;20201;-91
2023/01/26 13:00:08;;;;;;;18.37;10.70;;;0.90;94.90;;;;;;5032926;28;20219;-91
2023/01/26 13:02:36;;;;;;;18.10;9.90;;;0.90;94.20;;;;;;5032325;28;20197;-91
2023/01/26 13:05:06;;;;;;;18.57;10.20;;;0.80;94.20;;;;;;5028768;28;20202;-89
2023/01/26 13:07:38;;;;;;;16.07;9.80;;;0.90;94.20;;;;;;5037517;28;20205;-90
2023/01/26 13:10:28;;;;;;;18.00;10.00;;;0.80;94.20;;;;;;5028946;28;20666;-90
2023/01/26 13:12:58;;;;;;;17.07;9.67;;;0.80;94.30;;;;;;5030032;28;20202;-90
2023/01/26 13:15:28;;;;;;;17.63;9.80;;;0.80;94.30;;;;;;5015282;28;20202;-90
2023/01/26 13:18:00;;;;;;;15.93;9.60;;;0.80;94.20;;;;;;5035015;28;20210;-91
2023/01/26 13:20:45;;;;;;;23.33;10.53;;;0.80;94.20;;;;;;5029043;28;20580;-90
2023/01/26 13:23:41;;;;;;;22.53;11.13;;;0.80;94.30;;;;;;5023645;28;20311;-90
2023/01/26 13:26:45;;;;;;;21.57;11.00;;;0.80;95.00;;;;;;5028798;28;20210;-89
2023/01/26 13:29:33;;;;;;;19.07;9.50;;;0.70;95.00;;;;;;5032695;28;20659;-90
2023/01/26 13:32:21;;;;;;;22.10;11.00;;;0.70;95.10;;;;;;5031013;28;20187;-91
2023/01/26 13:34:53;;;;;;;20.00;10.70;;;0.60;95.40;;;;;;5030512;28;20210;-91
2023/01/26 13:37:28;;;;;;;17.73;10.70;;;0.50;95.50;;;;;;5029200;28;20207;-90
2023/01/26 13:39:59;;;;;;;20.33;10.43;;;0.50;95.80;;;;;;5026519;28;20218;-91
2023/01/26 13:42:33;;;;;;;18.27;10.47;;;0.60;95.60;;;;;;5026917;28;20199;-90
2023/01/26 13:45:04;;;;;;;20.03;10.83;;;0.80;94.90;;;;;;5028203;28;20210;-89
2023/01/26 13:47:37;;;;;;;19.93;10.73;;;0.90;94.60;;;;;;5028420;28;20233;-91
2023/01/26 13:50:22;;;;;;;19.10;10.80;;;0.80;94.60;;;;;;5024477;28;20205;-92
2023/01/26 13:52:50;;;;;;;19.20;10.70;;;0.80;95.10;;;;;;5027408;28;20199;-89